createdAt,value
2022-12-12T00:01:38.362Z,19.90
2022-12-12T00:04:06.876Z,19.90
2022-12-12T00:06:35.284Z,19.90
2022-12-12T00:09:05.176Z,20.00
2022-12-12T00:11:33.500Z,19.90
2022-12-12T00:14:01.895Z,20.10
2022-12-12T00:16:30.257Z,19.90
2022-12-12T00:19:01.364Z,19.90
2022-12-12T00:21:30.166Z,19.90
2022-12-12T00:23:58.899Z,19.90
2022-12-12T00:26:29.476Z,19.90
2022-12-12T00:28:57.990Z,19.40
2022-12-12T00:31:26.443Z,19.90
2022-12-12T00:33:55.121Z,20.00
2022-12-12T00:36:24.383Z,20.00
2022-12-12T00:38:53.373Z,19.70
2022-12-12T00:41:21.779Z,19.80
2022-12-12T00:43:51.514Z,19.80
2022-12-12T00:46:23.308Z,19.90
2022-12-12T00:48:51.722Z,19.80
2022-12-12T00:51:21.260Z,19.70
2022-12-12T00:53:50.275Z,19.90
2022-12-12T00:56:18.681Z,19.90
2022-12-12T00:58:47.176Z,19.40
2022-12-12T01:01:18.954Z,19.70
2022-12-12T01:03:50.388Z,19.80
2022-12-12T01:06:18.821Z,19.60
2022-12-12T01:08:47.227Z,19.80
2022-12-12T01:11:15.730Z,19.40
2022-12-12T01:13:44.351Z,19.60
2022-12-12T01:16:14.878Z,19.40
2022-12-12T01:18:44.617Z,19.90
2022-12-12T01:21:13.671Z,19.80
2022-12-12T01:23:42.106Z,20.10
2022-12-12T01:26:14.767Z,19.80
2022-12-12T01:28:43.528Z,19.70
2022-12-12T01:31:11.899Z,19.70
2022-12-12T01:33:40.373Z,19.70
2022-12-12T01:36:10.293Z,19.70
2022-12-12T01:38:38.668Z,19.70
2022-12-12T01:41:07.057Z,19.70
2022-12-12T01:43:37.783Z,19.70
2022-12-12T01:46:38.667Z,19.70
2022-12-12T01:49:20.812Z,19.70
2022-12-12T01:51:50.854Z,19.60
2022-12-12T01:54:22.090Z,19.60
2022-12-12T01:56:50.484Z,19.60
2022-12-12T01:59:20.098Z,19.50
2022-12-12T02:01:48.556Z,19.60
2022-12-12T02:04:16.967Z,19.60
2022-12-12T02:06:45.539Z,19.60
2022-12-12T02:09:15.374Z,19.60
2022-12-12T02:11:45.489Z,19.60
2022-12-12T02:14:17.097Z,19.50
2022-12-12T02:16:58.845Z,19.50
2022-12-12T02:19:45.439Z,19.60
2022-12-12T02:22:18.884Z,19.60
2022-12-12T02:25:08.028Z,19.50
2022-12-12T02:27:42.046Z,19.50
2022-12-12T02:30:20.075Z,19.40
2022-12-12T02:33:05.581Z,19.40
2022-12-12T02:35:36.779Z,19.40
2022-12-12T02:38:08.471Z,19.40
2022-12-12T02:40:39.507Z,19.40
2022-12-12T02:43:13.121Z,19.40
2022-12-12T02:45:44.966Z,19.40
2022-12-12T02:48:18.116Z,19.30
2022-12-12T02:50:46.464Z,19.30
2022-12-12T02:53:17.967Z,19.30
2022-12-12T02:55:46.409Z,19.30
2022-12-12T02:58:14.876Z,19.30
2022-12-12T03:00:48.771Z,19.20
2022-12-12T03:03:41.510Z,19.20
2022-12-12T03:06:48.373Z,19.20
2022-12-12T03:09:20.903Z,19.10
2022-12-12T03:12:04.391Z,19.20
2022-12-12T03:14:37.858Z,19.20
2022-12-12T03:17:09.659Z,19.10
2022-12-12T03:19:46.780Z,19.10
2022-12-12T03:22:17.436Z,19.10
2022-12-12T03:24:48.576Z,19.10
2022-12-12T03:27:19.016Z,19.10
2022-12-12T03:29:49.422Z,19.10
2022-12-12T03:32:20.335Z,19.00
2022-12-12T03:34:51.198Z,19.10
2022-12-12T03:37:20.899Z,19.10
2022-12-12T03:39:50.844Z,19.00
2022-12-12T03:42:21.343Z,19.00
2022-12-12T03:44:50.689Z,19.00
2022-12-12T03:47:21.146Z,19.00
2022-12-12T03:49:51.595Z,19.00
2022-12-12T03:52:22.523Z,19.00
2022-12-12T03:54:53.121Z,19.00
2022-12-12T03:57:23.288Z,19.00
2022-12-12T03:59:53.824Z,19.00
2022-12-12T04:02:23.787Z,19.00
2022-12-12T04:04:57.530Z,19.00
2022-12-12T04:07:27.132Z,18.90
2022-12-12T04:10:12.913Z,18.90
2022-12-12T04:13:00.861Z,18.90
2022-12-12T04:15:55.142Z,18.90
2022-12-12T04:18:30.152Z,18.90
2022-12-12T04:21:25.222Z,18.80
2022-12-12T04:23:57.357Z,18.90
2022-12-12T04:26:40.889Z,18.90
2022-12-12T04:29:28.549Z,18.80
2022-12-12T04:31:59.114Z,18.80
2022-12-12T04:34:30.584Z,18.80
2022-12-12T04:37:00.340Z,18.80
2022-12-12T04:39:28.696Z,18.80
2022-12-12T04:41:57.417Z,18.80
2022-12-12T04:44:27.813Z,18.80
2022-12-12T04:46:56.233Z,18.80
2022-12-12T04:49:27.231Z,18.80
2022-12-12T04:51:57.007Z,18.80
2022-12-12T04:54:29.898Z,18.80
2022-12-12T04:56:59.652Z,18.80
2022-12-12T04:59:27.979Z,18.80
2022-12-12T05:01:59.318Z,18.70
2022-12-12T05:04:30.299Z,18.70
2022-12-12T05:07:01.714Z,18.70
2022-12-12T05:09:31.457Z,18.70
2022-12-12T05:11:59.825Z,18.80
2022-12-12T05:14:33.660Z,18.70
2022-12-12T05:17:13.759Z,18.70
2022-12-12T05:19:44.636Z,18.70
2022-12-12T05:22:12.940Z,18.70
2022-12-12T05:24:42.639Z,18.70
2022-12-12T05:27:11.923Z,18.70
2022-12-12T05:29:40.371Z,18.70
2022-12-12T05:32:08.753Z,18.70
2022-12-12T05:34:37.134Z,18.70
2022-12-12T05:37:08.671Z,18.70
2022-12-12T05:39:37.274Z,18.60
2022-12-12T05:42:07.047Z,18.70
2022-12-12T05:44:40.872Z,18.60
2022-12-12T05:47:09.265Z,18.60
2022-12-12T05:49:37.656Z,18.60
2022-12-12T05:52:06.311Z,18.60
2022-12-12T05:54:37.472Z,18.50
2022-12-12T05:57:07.214Z,18.60
2022-12-12T05:59:35.630Z,18.60
2022-12-12T06:02:05.723Z,18.50
2022-12-12T06:04:34.170Z,18.50
2022-12-12T06:07:02.547Z,18.50
2022-12-12T06:09:31.354Z,18.50
2022-12-12T06:12:01.629Z,18.40
2022-12-12T06:14:31.460Z,18.50
2022-12-12T06:16:59.841Z,18.50
2022-12-12T06:19:28.223Z,18.50
2022-12-12T06:21:56.598Z,18.40
2022-12-12T06:24:24.981Z,18.40
2022-12-12T06:26:53.312Z,18.40
2022-12-12T06:29:21.664Z,18.50
2022-12-12T06:31:51.455Z,18.40
2022-12-12T06:34:19.771Z,18.40
2022-12-12T06:36:48.154Z,18.30
2022-12-12T06:39:18.448Z,18.50
2022-12-12T06:41:46.804Z,18.40
2022-12-12T06:44:17.354Z,18.40
2022-12-12T06:46:45.754Z,18.40
2022-12-12T06:49:15.503Z,18.30
2022-12-12T06:51:44.488Z,18.40
2022-12-12T06:54:13.154Z,18.40
2022-12-12T06:56:47.733Z,18.50
2022-12-12T06:59:16.916Z,18.40
2022-12-12T07:01:45.367Z,18.60
2022-12-12T07:04:15.257Z,18.60
2022-12-12T07:06:43.777Z,18.70
2022-12-12T07:09:12.290Z,18.70
2022-12-12T07:11:40.746Z,18.70
2022-12-12T07:14:09.417Z,18.80
2022-12-12T07:16:38.575Z,18.70
2022-12-12T07:19:06.969Z,18.80
2022-12-12T07:21:37.044Z,18.90
2022-12-12T07:24:06.050Z,18.90
2022-12-12T07:26:34.642Z,18.90
2022-12-12T07:29:05.300Z,19.00
2022-12-12T07:31:34.002Z,19.00
2022-12-12T07:34:02.506Z,19.10
2022-12-12T07:36:30.955Z,19.10
2022-12-12T07:39:00.906Z,19.20
2022-12-12T07:41:29.531Z,19.10
2022-12-12T07:43:58.349Z,19.00
2022-12-12T07:46:27.088Z,19.20
2022-12-12T07:48:55.589Z,19.30
2022-12-12T07:51:28.806Z,19.30
2022-12-12T07:54:04.413Z,19.30
2022-12-12T07:56:34.164Z,19.40
2022-12-12T07:59:02.564Z,19.40
2022-12-12T08:01:30.977Z,19.40
2022-12-12T08:03:59.329Z,19.40
2022-12-12T08:06:27.684Z,19.50
2022-12-12T08:08:58.969Z,19.40
2022-12-12T08:11:27.361Z,19.50
2022-12-12T08:13:57.168Z,19.50
2022-12-12T08:16:26.440Z,19.50
2022-12-12T08:18:54.937Z,19.50
2022-12-12T08:21:26.187Z,19.50
2022-12-12T08:23:57.080Z,19.60
2022-12-12T08:26:25.959Z,19.60
2022-12-12T08:28:58.086Z,19.60
2022-12-12T08:31:26.729Z,19.60
2022-12-12T08:33:55.098Z,19.70
2022-12-12T08:36:24.265Z,19.80
2022-12-12T08:38:52.639Z,19.90
2022-12-12T08:41:21.033Z,20.00
2022-12-12T08:43:49.726Z,20.00
2022-12-12T08:46:19.852Z,20.10
2022-12-12T08:48:48.613Z,20.10
2022-12-12T08:51:17.322Z,20.10
2022-12-12T08:53:46.155Z,20.20
2022-12-12T08:56:20.481Z,20.20
2022-12-12T08:58:51.611Z,20.30
2022-12-12T09:01:22.349Z,20.30
2022-12-12T09:03:51.077Z,20.40
2022-12-12T09:06:19.539Z,20.40
2022-12-12T09:08:48.062Z,20.30
2022-12-12T09:11:16.779Z,20.30
2022-12-12T09:13:45.703Z,20.30
2022-12-12T09:16:14.205Z,20.40
2022-12-12T09:18:48.722Z,20.40
2022-12-12T09:21:17.784Z,20.40
2022-12-12T09:23:46.264Z,20.40
2022-12-12T09:26:14.615Z,20.40
2022-12-12T09:28:43.018Z,20.40
2022-12-12T09:31:14.633Z,20.40
2022-12-12T09:33:46.636Z,20.40
2022-12-12T09:36:15.281Z,20.50
2022-12-12T09:38:43.621Z,20.50
2022-12-12T09:41:15.905Z,20.40
2022-12-12T09:43:49.017Z,20.40
2022-12-12T09:46:21.869Z,20.30
2022-12-12T09:48:51.594Z,20.20
2022-12-12T09:51:25.540Z,20.20
2022-12-12T09:53:53.884Z,20.10
2022-12-12T09:56:24.485Z,20.20
2022-12-12T09:58:56.936Z,20.20
2022-12-12T10:01:28.517Z,20.10
2022-12-12T10:04:04.056Z,20.10
2022-12-12T10:06:37.908Z,20.20
2022-12-12T10:09:23.167Z,20.10
2022-12-12T10:11:51.564Z,20.00
2022-12-12T10:14:21.977Z,20.10
2022-12-12T10:16:57.847Z,20.10
2022-12-12T10:19:31.041Z,20.00
2022-12-12T10:22:04.543Z,20.00
2022-12-12T10:24:37.725Z,20.10
2022-12-12T10:27:10.301Z,20.10
2022-12-12T10:29:41.576Z,20.10
2022-12-12T10:32:14.149Z,20.10
2022-12-12T10:34:51.614Z,20.10
2022-12-12T10:37:28.280Z,20.10
2022-12-12T10:40:00.912Z,20.10
2022-12-12T10:42:31.521Z,20.10
2022-12-12T10:45:24.364Z,20.10
2022-12-12T10:47:56.771Z,20.20
2022-12-12T10:50:31.476Z,20.10
2022-12-12T10:52:59.837Z,19.20
2022-12-12T10:55:36.710Z,20.20
2022-12-12T10:58:05.716Z,20.20
2022-12-12T11:00:34.804Z,20.10
2022-12-12T11:03:23.802Z,20.20
2022-12-12T11:05:56.762Z,20.10
2022-12-12T11:08:28.243Z,20.10
2022-12-12T11:11:01.893Z,20.00
2022-12-12T11:13:30.575Z,20.20
2022-12-12T11:16:02.520Z,20.20
2022-12-12T11:18:31.048Z,20.00
2022-12-12T11:21:07.060Z,20.20
2022-12-12T11:23:36.042Z,20.20
2022-12-12T11:26:05.605Z,20.20
2022-12-12T11:28:36.274Z,20.10
2022-12-12T11:31:06.336Z,20.20
2022-12-12T11:33:35.749Z,20.20
2022-12-12T11:36:06.765Z,20.20
2022-12-12T11:38:38.832Z,20.10
2022-12-12T11:41:10.673Z,20.10
2022-12-12T11:43:45.312Z,20.10
2022-12-12T11:46:17.940Z,20.00
2022-12-12T11:48:56.251Z,20.00
2022-12-12T11:51:35.008Z,20.00
2022-12-12T11:54:04.024Z,20.00
2022-12-12T11:56:41.677Z,20.00
2022-12-12T11:59:39.469Z,20.00
2022-12-12T12:02:29.910Z,19.90
2022-12-12T12:05:03.412Z,20.10
2022-12-12T12:07:52.842Z,19.90
2022-12-12T12:10:26.295Z,19.90
2022-12-12T12:12:57.555Z,19.90
2022-12-12T12:15:36.058Z,19.80
2022-12-12T12:18:28.761Z,19.80
2022-12-12T12:21:20.600Z,19.90
2022-12-12T12:23:53.758Z,19.80
2022-12-12T12:26:25.813Z,19.80
2022-12-12T12:29:17.749Z,19.80
2022-12-12T12:31:49.265Z,19.80
2022-12-12T12:34:21.736Z,19.80
2022-12-12T12:36:58.312Z,19.80
2022-12-12T12:39:38.380Z,19.80
2022-12-12T12:42:12.725Z,19.80
2022-12-12T12:44:46.631Z,19.70
2022-12-12T12:47:24.564Z,19.80
2022-12-12T12:49:54.528Z,19.70
2022-12-12T12:52:23.725Z,19.60
2022-12-12T12:54:53.465Z,19.60
2022-12-12T12:57:25.408Z,19.60
2022-12-12T12:59:57.739Z,19.80
2022-12-12T13:02:31.009Z,19.60
2022-12-12T13:05:07.125Z,19.60
2022-12-12T13:07:42.247Z,19.60
2022-12-12T13:10:18.140Z,19.50
2022-12-12T13:12:49.125Z,19.60
2022-12-12T13:15:20.740Z,19.60
2022-12-12T13:17:52.864Z,19.50
2022-12-12T13:20:22.907Z,19.50
2022-12-12T13:23:05.553Z,19.60
2022-12-12T13:25:37.234Z,19.50
2022-12-12T13:28:07.479Z,19.50
2022-12-12T13:30:42.600Z,19.50
2022-12-12T13:33:21.058Z,19.50
2022-12-12T13:35:51.022Z,19.40
2022-12-12T13:38:26.231Z,19.60
2022-12-12T13:41:01.969Z,19.70
2022-12-12T13:43:40.285Z,19.60
2022-12-12T13:46:41.679Z,19.80
2022-12-12T13:49:19.570Z,19.70
2022-12-12T13:51:47.969Z,19.70
2022-12-12T13:54:46.625Z,19.70
2022-12-12T13:57:23.538Z,19.60
2022-12-12T14:00:27.617Z,19.60
2022-12-12T14:03:02.301Z,19.60
2022-12-12T14:05:35.876Z,19.70
2022-12-12T14:08:07.862Z,19.60
2022-12-12T14:10:37.372Z,19.60
2022-12-12T14:13:20.593Z,19.50
2022-12-12T14:15:49.463Z,19.60
2022-12-12T14:18:20.345Z,19.60
2022-12-12T14:20:59.616Z,19.60
2022-12-12T14:23:34.080Z,19.60
2022-12-12T14:26:02.608Z,19.70
2022-12-12T14:28:32.533Z,19.70
2022-12-12T14:31:13.136Z,19.70
2022-12-12T14:34:08.478Z,19.80
2022-12-12T14:37:04.644Z,19.70
2022-12-12T14:39:55.521Z,19.70
2022-12-12T14:43:19.570Z,19.70
2022-12-12T14:45:26.996Z,20.10
2022-12-12T14:48:18.022Z,19.80
2022-12-12T14:50:57.506Z,19.80
2022-12-12T14:53:26.766Z,19.80
2022-12-12T14:56:00.178Z,19.90
2022-12-12T14:58:29.587Z,20.00
2022-12-12T15:01:00.413Z,19.90
2022-12-12T15:03:31.557Z,20.00
2022-12-12T15:06:34.998Z,19.90
2022-12-12T15:09:11.998Z,19.80
2022-12-12T15:11:45.246Z,19.80
2022-12-12T15:14:21.672Z,19.90
2022-12-12T15:16:54.153Z,19.80
2022-12-12T15:19:25.472Z,19.80
2022-12-12T15:21:53.903Z,19.80
2022-12-12T15:24:26.241Z,19.80
2022-12-12T15:26:55.935Z,19.70
2022-12-12T15:29:25.486Z,19.60
2022-12-12T15:32:01.128Z,19.60
2022-12-12T15:34:34.390Z,19.60
2022-12-12T15:37:27.432Z,20.10
2022-12-12T15:40:13.587Z,19.60
2022-12-12T15:42:43.860Z,19.80
2022-12-12T15:45:21.398Z,19.50
2022-12-12T15:47:55.386Z,18.70
2022-12-12T15:50:25.374Z,19.50
2022-12-12T15:53:03.832Z,19.60
2022-12-12T15:55:32.245Z,19.40
2022-12-12T15:58:04.250Z,19.50
2022-12-12T16:00:35.182Z,19.50
2022-12-12T16:03:07.269Z,19.50
2022-12-12T16:05:36.892Z,19.40
2022-12-12T16:08:31.473Z,19.50
2022-12-12T16:11:01.505Z,19.60
2022-12-12T16:13:36.532Z,19.40
2022-12-12T16:16:34.531Z,19.40
2022-12-12T16:19:05.193Z,19.30
2022-12-12T16:21:36.651Z,19.40
2022-12-12T16:24:12.367Z,19.40
2022-12-12T16:26:40.956Z,19.40
2022-12-12T16:29:11.315Z,19.30
2022-12-12T16:31:39.718Z,19.40
2022-12-12T16:34:10.845Z,19.30
2022-12-12T16:36:42.266Z,19.30
2022-12-12T16:39:13.756Z,19.30
2022-12-12T16:41:42.596Z,19.30
2022-12-12T16:44:11.139Z,19.50
2022-12-12T16:46:39.979Z,19.30
2022-12-12T16:49:15.488Z,19.20
2022-12-12T16:51:45.408Z,19.30
2022-12-12T16:54:17.065Z,19.30
2022-12-12T16:56:52.265Z,19.20
2022-12-12T16:59:20.956Z,19.30
2022-12-12T17:01:51.225Z,19.30
2022-12-12T17:04:23.077Z,19.30
2022-12-12T17:06:51.847Z,19.30
2022-12-12T17:09:26.827Z,19.20
2022-12-12T17:11:58.126Z,19.20
2022-12-12T17:14:26.891Z,19.30
2022-12-12T17:16:56.208Z,19.60
2022-12-12T17:19:29.080Z,19.20
2022-12-12T17:21:58.132Z,19.20
2022-12-12T17:24:26.631Z,19.10
2022-12-12T17:26:55.253Z,19.20
2022-12-12T17:29:23.848Z,19.30
2022-12-12T17:31:52.722Z,19.20
2022-12-12T17:34:21.304Z,19.20
2022-12-12T17:36:51.294Z,19.30
2022-12-12T17:39:20.290Z,19.40
2022-12-12T17:41:49.103Z,19.10
2022-12-12T17:44:18.412Z,19.20
2022-12-12T17:46:47.087Z,19.20
2022-12-12T17:49:15.815Z,19.10
2022-12-12T17:51:44.315Z,19.20
2022-12-12T17:54:15.044Z,19.20
2022-12-12T17:56:43.714Z,19.10
2022-12-12T17:59:12.713Z,19.20
2022-12-12T18:01:41.270Z,19.20
2022-12-12T18:04:10.251Z,19.00
2022-12-12T18:06:39.288Z,19.10
2022-12-12T18:09:07.791Z,19.20
2022-12-12T18:11:38.739Z,19.10
2022-12-12T18:14:08.059Z,19.30
2022-12-12T18:16:37.618Z,19.30
2022-12-12T18:19:06.221Z,19.10
2022-12-12T18:24:25.193Z,19.30
2022-12-12T18:26:55.382Z,19.30
2022-12-12T18:29:24.828Z,19.30
2022-12-12T18:31:54.146Z,19.20
2022-12-12T18:34:22.968Z,19.30
2022-12-12T18:36:51.651Z,19.30
2022-12-12T18:39:20.292Z,19.20
2022-12-12T18:41:49.011Z,19.30
2022-12-12T18:44:19.097Z,19.30
2022-12-12T18:46:50.765Z,19.60
2022-12-12T18:49:19.412Z,19.30
2022-12-12T18:51:48.366Z,18.80
2022-12-12T18:54:17.656Z,19.30
2022-12-12T18:56:46.715Z,19.50
2022-12-12T18:59:15.220Z,19.30
2022-12-12T19:01:45.289Z,19.50
2022-12-12T19:04:19.291Z,19.30
2022-12-12T19:09:33.416Z,19.30
2022-12-12T19:12:02.876Z,19.40
2022-12-12T19:15:15.100Z,19.50
2022-12-12T19:17:25.607Z,19.60
2022-12-12T19:19:55.272Z,19.70
2022-12-12T19:22:44.405Z,19.70
2022-12-12T19:25:12.976Z,19.90
2022-12-12T19:27:41.590Z,19.60
2022-12-12T19:30:16.737Z,19.60
2022-12-12T19:32:49.382Z,19.50
2022-12-12T19:35:18.251Z,19.70
2022-12-12T19:37:46.987Z,19.70
2022-12-12T19:40:16.220Z,19.80
2022-12-12T19:42:45.481Z,19.80
2022-12-12T19:45:14.943Z,19.80
2022-12-12T19:47:43.895Z,20.10
2022-12-12T19:50:15.588Z,20.30
2022-12-12T19:52:47.260Z,20.50
2022-12-12T19:55:15.836Z,20.60
2022-12-12T19:57:44.958Z,20.60
2022-12-12T20:00:17.263Z,20.60
2022-12-12T20:02:48.076Z,20.50
2022-12-12T20:05:18.202Z,20.40
2022-12-12T20:07:46.817Z,20.30
2022-12-12T20:10:15.687Z,20.30
2022-12-12T20:12:54.692Z,20.20
2022-12-12T20:15:29.331Z,20.30
2022-12-12T20:18:00.487Z,20.40
2022-12-12T20:20:30.551Z,20.30
2022-12-12T20:22:59.622Z,20.30
2022-12-12T20:25:28.423Z,20.30
2022-12-12T20:27:59.144Z,20.30
2022-12-12T20:30:28.628Z,20.20
2022-12-12T20:32:57.275Z,20.30
2022-12-12T20:35:26.187Z,20.40
2022-12-12T20:37:57.913Z,20.20
2022-12-12T20:40:26.936Z,20.40
2022-12-12T20:43:01.588Z,20.60
2022-12-12T20:45:31.688Z,20.30
2022-12-12T20:48:04.378Z,20.40
2022-12-12T20:50:35.808Z,20.10
2022-12-12T20:53:06.341Z,20.30
2022-12-12T20:55:36.058Z,20.40
2022-12-12T20:58:04.708Z,20.50
2022-12-12T21:00:36.712Z,20.40
2022-12-12T21:03:08.096Z,20.50
2022-12-12T21:05:36.798Z,20.60
2022-12-12T21:08:07.062Z,20.50
2022-12-12T21:10:35.516Z,20.60
2022-12-12T21:13:04.440Z,20.40
2022-12-12T21:15:32.917Z,20.50
2022-12-12T21:18:01.523Z,20.50
2022-12-12T21:20:31.370Z,20.30
2022-12-12T21:23:00.517Z,20.40
2022-12-12T21:25:30.332Z,20.50
2022-12-12T21:27:58.803Z,20.40
2022-12-12T21:30:27.254Z,20.20
2022-12-12T21:32:55.732Z,20.20
2022-12-12T21:35:24.535Z,20.40
2022-12-12T21:37:53.160Z,20.30
2022-12-12T21:40:21.616Z,20.30
2022-12-12T21:42:51.432Z,20.40
2022-12-12T21:45:19.804Z,20.30
2022-12-12T21:47:48.748Z,20.00
2022-12-12T21:50:17.385Z,20.30
2022-12-12T21:53:06.767Z,20.60
2022-12-12T21:55:37.923Z,20.30
2022-12-12T21:58:07.878Z,20.40
2022-12-12T22:00:39.885Z,20.30
2022-12-12T22:03:08.412Z,20.30
2022-12-12T22:05:37.282Z,20.40
2022-12-12T22:08:06.207Z,20.30
2022-12-12T22:10:38.002Z,20.60
2022-12-12T22:13:07.721Z,20.30
2022-12-12T22:15:36.344Z,20.40
2022-12-12T22:18:04.878Z,20.40
2022-12-12T22:20:36.513Z,20.30
2022-12-12T22:23:04.822Z,20.30
2022-12-12T22:25:33.203Z,20.40
2022-12-12T22:28:01.528Z,20.30
2022-12-12T22:30:33.702Z,20.40
2022-12-12T22:33:02.130Z,20.30
2022-12-12T22:35:30.481Z,20.40
2022-12-12T22:37:58.816Z,20.50
2022-12-12T22:40:27.249Z,20.60
2022-12-12T22:42:55.552Z,20.90
2022-12-12T22:45:23.893Z,21.00
2022-12-12T22:47:53.622Z,20.90
2022-12-12T22:50:24.061Z,20.90
2022-12-12T22:52:52.395Z,20.80
2022-12-12T22:55:20.697Z,20.70
2022-12-12T22:57:49.036Z,20.70
2022-12-12T23:00:18.625Z,20.70
2022-12-12T23:02:47.003Z,20.70
2022-12-12T23:05:17.096Z,20.60
2022-12-12T23:07:45.688Z,20.60
2022-12-12T23:10:14.023Z,20.60
2022-12-12T23:12:42.352Z,20.50
2022-12-12T23:15:11.862Z,20.50
2022-12-12T23:17:40.393Z,20.20
2022-12-12T23:20:17.435Z,20.40
2022-12-12T23:22:47.207Z,20.40
2022-12-12T23:25:17.937Z,20.30
2022-12-12T23:27:46.329Z,20.30
2022-12-12T23:30:14.848Z,19.90
2022-12-12T23:32:47.932Z,20.10
2022-12-12T23:35:25.160Z,20.20
2022-12-12T23:37:54.865Z,20.00
2022-12-12T23:40:26.327Z,19.40
2022-12-12T23:42:58.973Z,20.00
2022-12-12T23:45:27.408Z,20.00
2022-12-12T23:47:55.829Z,20.20
2022-12-12T23:50:24.196Z,19.90
2022-12-12T23:52:53.848Z,19.90
2022-12-12T23:55:22.133Z,19.90
2022-12-12T23:57:50.452Z,19.90
